Airfield :
LOGIN :

Register | Disclaimer

   EN    FR    IT 

 










Legend :    VFR   Marginal VFR   IFR   Intensive IFR   Very Intensive IFR
Visi :
Ceiling :
>= 8 km
>= 3000ft
5 to 8 km
1000 to 3000 ft
1500m to 5 km
500 to 1000 ft
800 to 1500m
200 to 500 ft
< 800m
< 200 ft
Symbols :   Thunderstorms  Fog  Heavy snow  Heavy precipitations  Wind > 20 kt
SIGMETs :     Misc.  Thunderstorms  Icing  Turbulence  Mountain Waves  Volcanic Ashes







- Airport Elevation : 1 ft
- Download approach charts


EGCK - Caernarfon

CURRENT METAR :
  • 182220Z AUTO VRB02KT 8000 NCD 11/08 Q1026

EXPIRED METARs :
  • 182150Z AUTO 03003KT 9999 NCD 11/08 Q1026
  • 182120Z AUTO 03002KT 9000 NCD 12/09 Q1026
  • 182050Z AUTO 03003KT 9999 NCD 12/08 Q1025
  • 182020Z AUTO VRB03KT 9999 NCD 14/08 Q1025
  • 181950Z AUTO VRB03KT 9999 NCD 14/08 Q1025
  • 181920Z AUTO 10004KT 9999 NCD 15/09 Q1025

TAF TAF EGCK
Valid from the 18 at 21:00 until the 19 at 06:00 UTC


181951Z 1821/1906 10005KT CAVOK
PROB30
TEMPO 1821/1906 9000
No reported NOTAMs for that airfield.



MET'MAP, your aeronautical weather chart ! - Copyright ORBIFLY December 2007 - Disclaimer

ORBIFLY MET'MAP TEAM :

Programming & Development : Alexandra Zaïnal
Concept & Development : Baudouin d'Aumeries
Co-Development & Prog : Marc-Olivier Méhu
Technical & hardware support : Manuel Goepfert

Contact : metmap@orbifly.com




SOURCES & CREDITS :

   NOAA